Time;durP1;ratioP1;P1;durP2;ratioP2;P2;SDS_P1;SDS_P2;PMS_P1;PMS_P2;Temp;Humidity;BMP_temperature;BMP_pressure;BME280_temperature;BME280_humidity;BME280_pressure;Samples;Min_cycle;Max_cycle;Signal;HPM_P1;HPM_P2
2024/01/15 00:00:52;;;;;;;17.30;10.60;;;;;;;2.38;79.31;98530.08;104731;1262;75544;-65
2024/01/15 00:03:39;;;;;;;17.90;10.30;;;;;;;2.37;79.31;98524.88;104591;1260;138384;-66
2024/01/15 00:06:05;;;;;;;8.20;5.50;;;;;;;2.38;79.26;98527.48;105666;1259;73897;-66
2024/01/15 00:08:32;;;;;;;13.40;8.00;;;;;;;2.41;79.29;98521.50;104700;1260;137679;-66
2024/01/15 00:10:59;;;;;;;6.20;4.40;;;;;;;2.41;79.32;98517.69;104805;1259;59829;-66
2024/01/15 00:13:25;;;;;;;7.50;5.70;;;;;;;2.38;79.28;98513.45;104751;1258;72888;-59
2024/01/15 00:15:52;;;;;;;9.00;6.60;;;;;;;2.35;79.35;98512.90;104304;1257;137530;-60
2024/01/15 00:18:19;;;;;;;14.00;7.40;;;;;;;2.35;79.47;98509.42;104697;1261;73053;-66
2024/01/15 00:20:46;;;;;;;9.80;6.10;;;;;;;2.33;79.48;98504.37;104641;1261;139562;-65
2024/01/15 00:23:12;;;;;;;9.30;5.50;;;;;;;2.31;79.54;98499.81;104709;1257;61339;-65
2024/01/15 00:25:40;;;;;;;23.00;15.50;;;;;;;2.26;79.43;98495.57;104668;1258;75666;-66
2024/01/15 00:28:07;;;;;;;30.80;22.20;;;;;;;2.19;79.35;98495.41;104350;1262;138222;-66
2024/01/15 00:30:34;;;;;;;16.30;12.30;;;;;;;2.12;79.45;98484.20;104692;1261;72802;-66
2024/01/15 00:33:00;;;;;;;11.90;8.60;;;;;;;2.08;79.36;98478.20;104585;1257;138914;-66
2024/01/15 00:35:27;;;;;;;12.90;7.70;;;;;;;2.00;79.27;98467.48;104686;1259;61246;-66
2024/01/15 00:37:54;;;;;;;20.00;13.10;;;;;;;1.95;79.37;98457.48;104674;1264;76005;-66
2024/01/15 00:40:20;;;;;;;12.00;7.50;;;;;;;1.89;79.38;98456.68;104657;1261;139333;-65
2024/01/15 00:42:47;;;;;;;9.90;6.80;;;;;;;1.85;79.51;98455.55;104682;1261;73943;-65
2024/01/15 00:45:14;;;;;;;10.40;6.00;;;;;;;1.81;79.38;98453.04;104640;1263;138031;-65
2024/01/15 00:47:41;;;;;;;8.10;3.20;;;;;;;1.77;79.37;98450.54;104705;1258;61373;-65
2024/01/15 00:50:08;;;;;;;5.10;2.70;;;;;;;1.73;79.35;98444.57;104744;1258;75226;-66
2024/01/15 00:52:35;;;;;;;3.80;2.60;;;;;;;1.71;79.44;98441.92;104572;1257;137129;-67
2024/01/15 00:55:02;;;;;;;5.00;2.70;;;;;;;1.68;79.36;98439.09;104782;1260;73870;-59
2024/01/15 00:57:28;;;;;;;7.60;3.60;;;;;;;1.66;79.45;98436.10;104583;1257;138236;-60
2024/01/15 00:59:55;;;;;;;6.60;2.80;;;;;;;1.65;79.55;98435.55;104573;1262;61447;-59
2024/01/15 01:02:22;;;;;;;4.80;2.90;;;;;;;1.68;79.67;98438.23;104369;1265;138782;-59
2024/01/15 01:04:48;;;;;;;3.80;2.60;;;;;;;1.75;79.85;98436.30;104617;1262;64426;-60
2024/01/15 01:07:15;;;;;;;6.10;2.80;;;;;;;1.83;79.88;98430.95;104483;1263;73751;-66
2024/01/15 01:09:42;;;;;;;5.40;2.50;;;;;;;1.88;79.78;98426.58;104586;1264;138104;-67
2024/01/15 01:12:09;;;;;;;5.60;2.70;;;;;;;1.92;79.75;98422.49;104496;1263;61330;-60
2024/01/15 01:14:36;;;;;;;6.70;3.00;;;;;;;1.94;79.84;98414.95;108465;1261;138270;-60
2024/01/15 01:17:02;;;;;;;6.60;3.00;;;;;;;1.97;79.69;98408.44;108511;1257;65867;-60
2024/01/15 01:19:30;;;;;;;4.90;2.70;;;;;;;2.00;79.73;98409.70;108648;1262;71697;-60
2024/01/15 01:21:56;;;;;;;4.30;2.40;;;;;;;2.04;79.83;98405.12;108508;1257;137716;-60
2024/01/15 01:24:23;;;;;;;4.40;2.20;;;;;;;2.09;79.79;98401.77;108645;1258;59050;-60
2024/01/15 01:26:50;;;;;;;3.00;2.50;;;;;;;2.14;79.64;98398.07;108031;1260;138458;-61
2024/01/15 01:29:17;;;;;;;6.10;2.80;;;;;;;2.17;79.66;98392.41;104564;1263;68555;-61
2024/01/15 01:31:44;;;;;;;4.80;2.90;;;;;;;2.20;79.54;98383.48;104507;1260;72944;-59
2024/01/15 01:34:14;;;;;;;4.80;2.80;;;;;;;2.21;79.47;98380.71;108363;1259;138309;-60
2024/01/15 01:36:41;;;;;;;4.40;2.30;;;;;;;2.18;79.47;98377.73;106161;1258;61255;-60
2024/01/15 01:39:09;;;;;;;6.90;3.00;;;;;;;2.14;79.31;98376.77;108356;1258;137853;-60
2024/01/15 01:41:35;;;;;;;5.20;2.80;;;;;;;2.13;79.61;98381.95;108604;1257;64267;-65
2024/01/15 01:44:02;;;;;;;5.50;2.80;;;;;;;2.12;79.44;98377.42;104684;1257;72200;-66
2024/01/15 01:46:29;;;;;;;3.10;2.20;;;;;;;2.12;79.37;98373.11;104508;1260;138122;-61
2024/01/15 01:48:56;;;;;;;5.30;2.20;;;;;;;2.11;79.46;98367.20;104568;1256;61284;-59
2024/01/15 01:51:22;;;;;;;3.30;2.00;;;;;;;2.12;79.60;98361.00;104372;1263;138388;-60
2024/01/15 01:53:50;;;;;;;4.10;2.30;;;;;;;2.13;79.62;98358.58;104472;1263;67419;-68
2024/01/15 01:56:17;;;;;;;5.20;2.50;;;;;;;2.12;79.41;98354.09;104955;1257;72109;-66
2024/01/15 01:58:44;;;;;;;5.00;2.50;;;;;;;2.10;79.49;98346.27;104765;1261;62648;-65
2024/01/15 02:01:12;;;;;;;4.30;2.60;;;;;;;2.11;79.48;98347.83;104578;1263;61276;-60
2024/01/15 02:03:40;;;;;;;6.00;2.90;;;;;;;2.11;79.47;98344.71;108534;1257;137647;-58
2024/01/15 02:06:09;;;;;;;3.90;2.50;;;;;;;2.12;79.50;98336.58;104595;1262;67400;-67
2024/01/15 02:08:36;;;;;;;3.10;2.50;;;;;;;2.11;79.41;98332.42;104864;1260;137487;-65
2024/01/15 02:11:03;;;;;;;4.10;2.80;;;;;;;2.11;79.47;98330.54;104852;1257;61930;-59
2024/01/15 02:13:30;;;;;;;5.80;2.70;;;;;;;2.10;79.62;98321.34;108694;1257;59392;-59
2024/01/15 02:15:57;;;;;;;3.80;2.30;;;;;;;2.07;79.54;98318.17;105613;1256;137960;-66
2024/01/15 02:18:23;;;;;;;4.20;2.40;;;;;;;2.04;79.68;98308.95;104603;1260;65440;-66
2024/01/15 02:20:50;;;;;;;3.50;2.10;;;;;;;2.02;79.72;98305.27;104557;1257;138011;-66
2024/01/15 02:23:17;;;;;;;2.70;1.90;;;;;;;1.98;79.68;98304.67;104940;1261;61379;-66
2024/01/15 02:25:47;;;;;;;4.10;2.50;;;;;;;1.95;79.91;98301.68;104902;1260;61182;-66
2024/01/15 02:28:15;;;;;;;4.00;2.40;;;;;;;1.96;79.95;98298.23;104576;1257;137929;-66
2024/01/15 02:30:42;;;;;;;3.10;2.30;;;;;;;1.94;79.89;98290.23;105142;1264;66482;-66
2024/01/15 02:33:10;;;;;;;3.50;2.60;;;;;;;1.91;79.95;98291.22;105589;1258;137997;-67
2024/01/15 02:35:36;;;;;;;3.80;2.10;;;;;;;1.88;79.91;98284.94;104699;1261;61298;-67
2024/01/15 02:38:04;;;;;;;2.40;2.00;;;;;;;1.84;80.04;98278.29;104463;1257;61975;-67
2024/01/15 02:40:31;;;;;;;2.50;2.30;;;;;;;1.84;80.00;98265.30;104443;1257;138898;-60
2024/01/15 02:42:57;;;;;;;3.50;2.20;;;;;;;1.84;79.91;98259.61;104476;1258;67282;-59
2024/01/15 02:45:24;;;;;;;2.70;2.10;;;;;;;1.84;79.92;98254.58;104605;1258;137997;-59
2024/01/15 02:47:51;;;;;;;2.20;1.60;;;;;;;1.83;80.10;98250.42;108516;1257;59036;-60
2024/01/15 02:50:18;;;;;;;4.10;2.20;;;;;;;1.83;79.77;98250.59;108510;1256;137890;-61
2024/01/15 02:52:44;;;;;;;2.90;2.10;;;;;;;1.80;79.94;98244.48;108616;1257;75081;-60
2024/01/15 02:55:11;;;;;;;3.30;2.10;;;;;;;1.77;79.62;98241.31;107671;1257;65275;-67
2024/01/15 02:57:37;;;;;;;3.60;2.50;;;;;;;1.73;79.77;98237.27;104434;1257;137367;-67
2024/01/15 03:00:05;;;;;;;3.10;2.20;;;;;;;1.67;79.74;98229.17;104490;1258;61276;-66
2024/01/15 03:02:32;;;;;;;2.40;2.20;;;;;;;1.62;79.75;98225.96;108392;1257;138723;-67
2024/01/15 03:04:58;;;;;;;2.30;1.90;;;;;;;1.56;79.70;98225.50;105582;1260;75735;-66
2024/01/15 03:07:26;;;;;;;2.70;2.30;;;;;;;1.50;80.03;98225.23;104877;1260;66643;-66
2024/01/15 03:09:53;;;;;;;3.60;2.60;;;;;;;1.48;80.13;98219.12;104474;1264;137887;-66
2024/01/15 03:12:20;;;;;;;4.00;2.50;;;;;;;1.46;80.45;98212.88;104741;1260;61343;-60
2024/01/15 03:14:46;;;;;;;3.30;2.50;;;;;;;1.47;80.57;98208.73;104542;1258;138113;-61
2024/01/15 03:17:13;;;;;;;3.00;2.30;;;;;;;1.48;80.70;98193.21;104669;1260;74086;-60
2024/01/15 03:19:40;;;;;;;3.40;2.50;;;;;;;1.53;80.74;98193.83;104421;1262;66053;-59
2024/01/15 03:22:08;;;;;;;4.80;2.40;;;;;;;1.55;80.94;98188.50;104515;1258;138139;-59
2024/01/15 03:24:35;;;;;;;3.90;2.40;;;;;;;1.54;80.98;98182.79;104761;1260;61285;-59
2024/01/15 03:27:02;;;;;;;3.10;2.20;;;;;;;1.55;81.10;98177.27;104469;1260;138201;-59
2024/01/15 03:29:29;;;;;;;3.40;2.70;;;;;;;1.56;81.21;98173.66;104497;1257;75482;-59
2024/01/15 03:31:56;;;;;;;5.20;2.20;;;;;;;1.54;81.17;98166.02;104630;1257;65346;-60
2024/01/15 03:34:22;;;;;;;3.80;2.70;;;;;;;1.52;81.20;98160.97;104302;1262;138323;-60
2024/01/15 03:36:52;;;;;;;4.00;2.40;;;;;;;1.53;81.20;98163.59;104595;1257;61293;-60
2024/01/15 03:39:19;;;;;;;4.20;2.90;;;;;;;1.54;81.34;98159.29;104619;1258;138023;-60
2024/01/15 03:41:46;;;;;;;3.10;2.40;;;;;;;1.55;81.41;98153.75;104688;1259;75054;-57
2024/01/15 03:44:12;;;;;;;3.20;2.60;;;;;;;1.56;81.50;98149.64;104577;1261;65416;-59
2024/01/15 03:46:39;;;;;;;2.70;2.30;;;;;;;1.59;81.77;98148.99;104477;1257;137939;-59
2024/01/15 03:49:05;;;;;;;3.40;2.20;;;;;;;1.60;81.72;98146.95;104715;1258;61385;-59
2024/01/15 03:51:32;;;;;;;3.10;2.60;;;;;;;1.64;81.80;98139.94;104234;1257;138645;-60
2024/01/15 03:53:59;;;;;;;3.00;2.70;;;;;;;1.67;81.75;98134.47;104648;1258;73850;-59
2024/01/15 03:56:26;;;;;;;3.00;2.60;;;;;;;1.68;81.64;98131.89;104245;1265;138566;-59
2024/01/15 03:58:52;;;;;;;3.10;2.80;;;;;;;1.69;81.72;98133.80;104596;1260;71840;-60
2024/01/15 04:01:19;;;;;;;5.60;2.60;;;;;;;1.68;81.70;98126.18;104403;1262;61373;-60
2024/01/15 04:03:45;;;;;;;4.00;2.60;;;;;;;1.69;81.74;98128.61;104556;1260;140115;-61
2024/01/15 04:06:12;;;;;;;4.90;2.70;;;;;;;1.71;81.95;98120.87;104399;1270;72611;-60
2024/01/15 04:08:39;;;;;;;3.30;2.70;;;;;;;1.71;81.89;98118.63;104388;1257;138921;-60
2024/01/15 04:11:06;;;;;;;2.90;2.60;;;;;;;1.71;81.89;98114.48;104653;1261;73883;-60
2024/01/15 04:13:33;;;;;;;2.80;2.50;;;;;;;1.72;81.91;98112.75;104581;1260;61393;-66
2024/01/15 04:16:00;;;;;;;3.00;2.70;;;;;;;1.70;81.90;98108.75;104837;1260;137891;-65
2024/01/15 04:18:27;;;;;;;3.10;2.80;;;;;;;1.68;81.79;98103.00;104924;1256;75601;-65
2024/01/15 04:20:53;;;;;;;3.80;3.20;;;;;;;1.67;81.83;98100.04;104745;1260;139050;-66
2024/01/15 04:23:20;;;;;;;5.80;2.70;;;;;;;1.66;81.89;98097.45;104667;1257;71144;-66
2024/01/15 04:25:47;;;;;;;4.50;3.30;;;;;;;1.65;82.10;98094.33;104632;1257;61250;-66
2024/01/15 04:28:14;;;;;;;3.60;2.90;;;;;;;1.66;82.06;98092.95;104669;1260;137866;-59
2024/01/15 04:30:40;;;;;;;4.00;3.50;;;;;;;1.67;82.20;98088.48;104737;1261;72979;-61
2024/01/15 04:33:07;;;;;;;4.40;3.30;;;;;;;1.70;82.51;98088.17;104613;1260;138094;-65
2024/01/15 04:35:34;;;;;;;4.60;3.30;;;;;;;1.69;82.39;98083.50;104741;1258;71072;-65
2024/01/15 04:38:01;;;;;;;3.90;3.30;;;;;;;1.67;82.28;98078.63;106007;1257;61385;-65
2024/01/15 04:40:27;;;;;;;3.40;3.10;;;;;;;1.67;82.34;98076.02;104567;1262;138033;-65
2024/01/15 04:42:54;;;;;;;4.00;3.10;;;;;;;1.67;82.39;98070.82;104647;1256;75476;-65
2024/01/15 04:45:22;;;;;;;3.60;3.10;;;;;;;1.66;82.39;98064.61;104558;1258;139623;-65
2024/01/15 04:47:49;;;;;;;4.10;3.40;;;;;;;1.66;82.38;98061.14;104731;1257;72828;-65
2024/01/15 04:50:16;;;;;;;3.80;3.20;;;;;;;1.67;82.38;98061.32;104618;1260;61468;-65
2024/01/15 04:52:42;;;;;;;3.50;2.80;;;;;;;1.66;82.31;98062.01;104654;1258;61332;-64
2024/01/15 04:55:09;;;;;;;3.40;3.10;;;;;;;1.65;82.47;98057.84;104602;1257;75408;-65
2024/01/15 04:57:36;;;;;;;5.90;3.30;;;;;;;1.64;82.47;98056.27;104466;1260;137859;-65
2024/01/15 05:00:04;;;;;;;3.80;3.30;;;;;;;1.64;82.47;98055.05;104594;1257;73295;-60
2024/01/15 05:02:31;;;;;;;3.80;3.30;;;;;;;1.63;82.58;98054.86;104331;1263;139469;-60
2024/01/15 05:04:58;;;;;;;4.00;3.00;;;;;;;1.61;82.42;98051.38;104497;1261;61260;-66
2024/01/15 05:07:25;;;;;;;4.00;3.10;;;;;;;1.58;82.57;98049.42;104710;1258;73983;-59
2024/01/15 05:09:51;;;;;;;3.60;2.80;;;;;;;1.54;82.53;98047.98;104547;1257;138134;-60
2024/01/15 05:12:18;;;;;;;4.50;2.90;;;;;;;1.50;82.64;98047.73;104564;1256;72450;-60
2024/01/15 05:14:45;;;;;;;2.70;2.40;;;;;;;1.44;82.40;98044.87;108443;1256;138495;-58
2024/01/15 05:17:11;;;;;;;3.50;2.80;;;;;;;1.41;82.48;98036.35;105340;1257;60232;-66
2024/01/15 05:19:38;;;;;;;4.60;3.00;;;;;;;1.40;82.74;98038.23;104641;1257;74875;-65
2024/01/15 05:22:05;;;;;;;6.30;2.90;;;;;;;1.43;82.85;98040.17;104568;1258;138014;-65
2024/01/15 05:24:31;;;;;;;6.00;2.90;;;;;;;1.45;82.86;98041.59;104525;1264;73457;-65
2024/01/15 05:26:58;;;;;;;3.50;2.20;;;;;;;1.46;82.88;98040.05;104518;1257;139270;-65
2024/01/15 05:29:25;;;;;;;3.60;2.30;;;;;;;1.48;82.71;98040.77;104634;1263;61323;-67
2024/01/15 05:31:51;;;;;;;3.20;2.10;;;;;;;1.48;82.72;98033.38;104672;1260;74367;-67
2024/01/15 05:34:18;;;;;;;2.10;1.70;;;;;;;1.45;82.39;98033.48;104416;1260;138013;-67
2024/01/15 05:36:47;;;;;;;3.10;1.80;;;;;;;1.37;82.09;98032.13;104568;1260;72903;-66
2024/01/15 05:39:14;;;;;;;5.40;2.40;;;;;;;1.31;82.01;98031.84;104656;1258;138732;-67
2024/01/15 05:41:41;;;;;;;4.20;1.60;;;;;;;1.24;81.75;98032.06;104763;1257;62014;-65
2024/01/15 05:44:07;;;;;;;4.50;1.80;;;;;;;1.18;81.82;98035.40;104522;1259;74269;-65
2024/01/15 05:46:34;;;;;;;3.00;1.70;;;;;;;1.17;81.85;98036.94;104471;1260;137418;-63
2024/01/15 05:49:01;;;;;;;2.70;1.90;;;;;;;1.17;81.94;98041.10;104786;1260;73292;-68
2024/01/15 05:51:27;;;;;;;2.60;1.70;;;;;;;1.21;82.17;98041.15;104644;1260;138381;-65
2024/01/15 05:53:54;;;;;;;1.90;1.40;;;;;;;1.27;82.10;98046.96;104640;1257;61159;-65
2024/01/15 05:56:21;;;;;;;3.70;1.60;;;;;;;1.32;82.45;98046.21;104648;1257;138142;-64
2024/01/15 05:58:47;;;;;;;2.20;1.60;;;;;;;1.36;82.28;98051.13;104683;1257;65363;-66
2024/01/15 06:01:14;;;;;;;2.10;1.40;;;;;;;1.36;82.42;98049.56;104609;1260;73692;-66
2024/01/15 06:03:41;;;;;;;3.10;1.30;;;;;;;1.33;82.22;98044.14;104433;1257;137877;-66
2024/01/15 06:06:09;;;;;;;1.70;1.50;;;;;;;1.26;82.15;98037.11;104771;1257;61261;-66
2024/01/15 06:08:35;;;;;;;1.40;1.30;;;;;;;1.13;81.86;98031.35;104569;1260;138252;-65
2024/01/15 06:11:03;;;;;;;3.90;2.10;;;;;;;1.01;81.62;98028.20;104565;1258;67805;-68
2024/01/15 06:13:29;;;;;;;4.40;1.60;;;;;;;0.90;81.44;98028.83;104406;1258;72045;-66
2024/01/15 06:15:56;;;;;;;9.50;1.70;;;;;;;0.79;81.27;98026.03;104559;1260;138007;-67
2024/01/15 06:18:23;;;;;;;7.00;2.10;;;;;;;0.68;81.09;98029.95;104750;1260;59733;-68
2024/01/15 06:20:49;;;;;;;4.00;2.00;;;;;;;0.60;81.01;98031.33;104563;1257;137542;-68
2024/01/15 06:23:16;;;;;;;5.50;1.80;;;;;;;0.54;81.17;98037.08;104581;1257;67806;-67
2024/01/15 06:25:43;;;;;;;32.80;16.80;;;;;;;0.50;81.06;98038.91;104651;1258;73526;-66
2024/01/15 06:28:09;;;;;;;16.40;8.00;;;;;;;0.48;80.90;98037.47;104435;1260;138033;-70
2024/01/15 06:30:36;;;;;;;11.40;6.40;;;;;;;0.47;81.05;98036.07;104405;1258;61814;-70
2024/01/15 06:33:03;;;;;;;10.20;4.30;;;;;;;0.44;81.16;98028.25;104303;1258;138070;-62
2024/01/15 06:35:30;;;;;;;8.20;4.10;;;;;;;0.42;81.27;98027.17;104661;1257;66961;-62
2024/01/15 06:37:57;;;;;;;10.20;4.10;;;;;;;0.46;81.33;98026.58;104819;1258;72069;-61
2024/01/15 06:40:24;;;;;;;8.50;3.80;;;;;;;0.46;81.28;98026.06;104613;1261;139662;-62
2024/01/15 06:42:50;;;;;;;8.40;4.10;;;;;;;0.41;81.10;98026.64;104585;1260;61262;-62
2024/01/15 06:45:17;;;;;;;8.80;4.70;;;;;;;0.36;81.07;98020.84;104478;1260;137930;-62
2024/01/15 06:47:44;;;;;;;8.20;3.80;;;;;;;0.31;81.04;98025.23;104535;1258;66025;-61
2024/01/15 06:50:10;;;;;;;11.40;4.40;;;;;;;0.25;80.96;98024.73;104659;1260;73920;-62
2024/01/15 06:52:37;;;;;;;30.90;12.80;;;;;;;0.18;80.92;98016.66;104559;1258;138244;-62
2024/01/15 06:55:05;;;;;;;50.70;20.40;;;;;;;0.15;81.15;98016.58;104747;1257;61260;-61
2024/01/15 06:57:32;;;;;;;67.10;27.90;;;;;;;0.12;81.39;98013.42;108822;1256;139325;-62
2024/01/15 06:59:59;;;;;;;58.70;26.00;;;;;;;0.10;81.41;98014.41;108936;1257;66385;-62
2024/01/15 07:02:26;;;;;;;49.70;20.50;;;;;;;0.08;81.43;98009.01;108757;1255;139598;-63
2024/01/15 07:04:53;;;;;;;37.00;16.80;;;;;;;0.06;81.48;98009.32;108893;1257;59146;-62
2024/01/15 07:07:19;;;;;;;47.10;20.50;;;;;;;0.08;81.44;98009.70;108978;1256;61677;-62
2024/01/15 07:09:46;;;;;;;94.50;38.30;;;;;;;0.10;81.63;98007.67;108831;1257;138982;-62
2024/01/15 07:12:13;;;;;;;64.10;26.30;;;;;;;0.10;81.58;98009.05;109007;1257;66964;-62
2024/01/15 07:14:39;;;;;;;62.00;27.00;;;;;;;0.10;81.54;98009.74;108749;1257;138728;-62
2024/01/15 07:17:06;;;;;;;39.10;16.60;;;;;;;0.13;81.80;98013.11;108861;1256;59127;-62
2024/01/15 07:19:33;;;;;;;40.70;17.80;;;;;;;0.26;82.06;98013.73;108965;1257;59117;-62
2024/01/15 07:22:00;;;;;;;87.50;33.50;;;;;;;0.46;82.47;98009.65;108889;1256;138610;-65
2024/01/15 07:24:26;;;;;;;77.80;27.80;;;;;;;0.61;82.84;98008.58;107458;1257;66943;-62
2024/01/15 07:26:53;;;;;;;50.70;18.10;;;;;;;0.68;82.99;98011.65;104778;1256;138482;-61
2024/01/15 07:29:20;;;;;;;77.90;26.00;;;;;;;0.73;82.98;98011.08;104980;1257;61364;-61
2024/01/15 07:31:50;;;;;;;34.10;18.20;;;;;;;0.75;83.09;98006.64;104769;1257;61872;-62
2024/01/15 07:34:17;;;;;;;23.10;9.60;;;;;;;0.79;83.35;98004.12;104925;1260;138532;-62
2024/01/15 07:36:46;;;;;;;11.30;6.30;;;;;;;0.83;83.52;98001.26;104908;1260;65968;-62
2024/01/15 07:39:15;;;;;;;15.80;6.30;;;;;;;0.88;83.64;98001.36;104616;1258;138178;-62
2024/01/15 07:41:42;;;;;;;12.90;6.00;;;;;;;0.91;83.58;97999.51;104988;1256;61274;-62
2024/01/15 07:44:08;;;;;;;12.80;7.40;;;;;;;0.90;83.51;97993.27;104733;1260;61294;-62
2024/01/15 07:46:35;;;;;;;26.70;13.30;;;;;;;0.89;83.41;97991.68;104670;1257;140475;-62
2024/01/15 07:49:02;;;;;;;16.70;8.20;;;;;;;0.85;83.26;97991.96;104895;1257;66201;-70
2024/01/15 07:51:29;;;;;;;42.20;18.80;;;;;;;0.83;83.24;97992.79;104639;1261;139595;-69
2024/01/15 07:53:56;;;;;;;51.00;22.50;;;;;;;0.79;83.09;97993.05;108778;1257;59448;-69
2024/01/15 07:56:22;;;;;;;23.50;11.30;;;;;;;0.77;83.09;97991.99;107607;1258;138741;-69
2024/01/15 07:58:49;;;;;;;30.20;13.20;;;;;;;0.75;82.88;97976.95;104811;1259;74644;-69
2024/01/15 08:01:16;;;;;;;46.60;18.80;;;;;;;0.85;83.13;97981.61;104575;1264;67364;-69
2024/01/15 08:03:42;;;;;;;42.70;19.80;;;;;;;0.95;83.33;97980.26;104826;1257;138392;-70
2024/01/15 08:06:09;;;;;;;24.10;11.50;;;;;;;1.06;83.30;97977.67;104752;1260;61359;-71
2024/01/15 08:08:39;;;;;;;30.10;11.80;;;;;;;1.13;83.10;97969.52;106734;1258;138935;-71
2024/01/15 08:11:06;;;;;;;33.70;13.70;;;;;;;1.22;83.06;97969.84;104765;1260;74998;-69
2024/01/15 08:13:33;;;;;;;29.10;12.70;;;;;;;1.36;83.12;97972.50;104747;1261;66846;-70
2024/01/15 08:15:59;;;;;;;30.50;14.50;;;;;;;1.46;83.01;97967.30;104559;1260;292837;-69
2024/01/15 08:18:26;;;;;;;21.00;10.10;;;;;;;1.46;82.55;97965.05;104783;1260;61373;-70
2024/01/15 08:20:53;;;;;;;36.80;15.50;;;;;;;1.46;82.51;97969.38;104611;1258;138929;-70
2024/01/15 08:23:21;;;;;;;33.90;14.90;;;;;;;1.47;82.36;97967.66;104826;1256;74963;-70
2024/01/15 08:25:47;;;;;;;30.50;13.10;;;;;;;1.47;82.30;97967.67;104867;1258;67307;-69
2024/01/15 08:28:14;;;;;;;31.90;12.90;;;;;;;1.46;82.23;97961.26;104677;1255;137883;-72
2024/01/15 08:30:41;;;;;;;29.10;13.10;;;;;;;1.45;82.02;97960.73;104764;1257;61333;-71
2024/01/15 08:33:07;;;;;;;54.80;22.00;;;;;;;1.42;81.90;97959.63;104661;1261;138472;-70
2024/01/15 08:35:35;;;;;;;49.10;18.80;;;;;;;1.39;81.78;97963.56;104733;1257;73490;-71
2024/01/15 08:38:02;;;;;;;24.40;11.60;;;;;;;1.37;81.52;97960.59;104825;1258;65725;-70
2024/01/15 08:40:29;;;;;;;31.70;13.70;;;;;;;1.35;81.53;97960.90;108867;1256;139279;-70
2024/01/15 08:42:55;;;;;;;33.60;15.00;;;;;;;1.34;81.55;97956.40;108861;1256;59419;-69
2024/01/15 08:45:23;;;;;;;33.90;14.60;;;;;;;1.43;81.62;97959.49;105365;1257;138534;-69
2024/01/15 08:47:49;;;;;;;38.70;16.30;;;;;;;1.66;82.20;97952.05;104967;1258;73961;-70
2024/01/15 08:50:16;;;;;;;45.60;18.60;;;;;;;1.88;82.41;97950.83;104737;1260;66080;-70
2024/01/15 08:52:43;;;;;;;32.90;13.60;;;;;;;2.05;82.36;97950.39;108800;1257;138088;-69
2024/01/15 08:55:09;;;;;;;22.70;10.60;;;;;;;2.25;82.44;97945.44;108830;1257;59930;-69
2024/01/15 08:57:36;;;;;;;25.70;10.50;;;;;;;2.41;82.25;97945.31;108770;1257;138331;-69
2024/01/15 09:00:03;;;;;;;24.10;11.50;;;;;;;2.48;81.82;97941.77;107662;1256;75724;-70
2024/01/15 09:02:30;;;;;;;23.40;10.40;;;;;;;2.53;81.54;97933.67;105024;1256;137965;-70
2024/01/15 09:04:57;;;;;;;31.10;13.60;;;;;;;2.58;81.29;97936.85;104803;1255;72343;-70
2024/01/15 09:07:25;;;;;;;28.20;13.80;;;;;;;2.63;81.39;97931.20;104726;1257;61361;-70
2024/01/15 09:09:52;;;;;;;25.00;12.40;;;;;;;2.68;80.97;97926.57;104709;1260;137571;-61
2024/01/15 09:12:20;;;;;;;25.00;12.40;;;;;;;2.73;80.80;97931.31;104953;1258;74375;-62
2024/01/15 09:14:47;;;;;;;17.60;9.70;;;;;;;2.83;80.79;97925.88;108850;1256;138496;-62
2024/01/15 09:17:14;;;;;;;19.30;9.80;;;;;;;2.90;80.47;97918.66;108958;1257;70739;-62
2024/01/15 09:19:41;;;;;;;34.40;18.20;;;;;;;3.02;80.22;97918.96;108939;1257;63869;-62
2024/01/15 09:22:08;;;;;;;39.10;20.60;;;;;;;3.19;80.15;97915.98;108782;1257;138475;-62
2024/01/15 09:24:35;;;;;;;53.00;25.80;;;;;;;3.29;79.51;97915.56;108939;1257;74887;-62
2024/01/15 09:27:02;;;;;;;64.40;32.70;;;;;;;3.27;78.78;97920.56;108796;1257;138305;-62
2024/01/15 09:29:29;;;;;;;62.80;33.20;;;;;;;3.19;78.44;97922.56;108962;1256;71473;-62
2024/01/15 09:31:55;;;;;;;30.70;15.40;;;;;;;3.11;78.16;97924.06;108950;1257;59324;-62
2024/01/15 09:34:22;;;;;;;45.70;21.70;;;;;;;2.99;77.65;97927.41;108884;1257;137351;-61
2024/01/15 09:36:49;;;;;;;47.40;25.40;;;;;;;2.90;77.63;97930.44;108876;1257;73714;-62
2024/01/15 09:39:15;;;;;;;45.90;26.90;;;;;;;2.86;77.65;97931.61;108853;1258;137808;-62
2024/01/15 09:41:42;;;;;;;24.40;14.50;;;;;;;2.81;77.59;97925.16;108978;1255;72419;-70
2024/01/15 09:44:08;;;;;;;24.50;13.80;;;;;;;2.77;77.24;97921.30;108033;1258;61276;-69
2024/01/15 09:46:35;;;;;;;15.70;9.40;;;;;;;2.69;77.03;97916.72;104570;1261;138108;-69
2024/01/15 09:49:02;;;;;;;16.80;9.80;;;;;;;2.64;76.88;97916.84;104869;1260;72604;-69
2024/01/15 09:51:32;;;;;;;15.00;10.80;;;;;;;2.60;76.81;97919.56;104825;1260;137528;-68
2024/01/15 09:53:58;;;;;;;8.30;5.60;;;;;;;2.57;76.85;97916.23;108195;1257;73652;-69
2024/01/15 09:56:25;;;;;;;11.40;6.10;;;;;;;2.56;76.74;97911.56;104712;1260;139048;-70
2024/01/15 09:58:52;;;;;;;5.40;3.40;;;;;;;2.56;76.70;97906.20;104853;1257;61293;-69
2024/01/15 10:01:22;;;;;;;5.50;2.60;;;;;;;2.52;76.50;97891.27;107163;1257;74052;-70
2024/01/15 10:03:50;;;;;;;7.10;3.30;;;;;;;2.48;76.64;97890.36;104628;1264;138566;-69
2024/01/15 10:06:19;;;;;;;3.20;1.90;;;;;;;2.46;76.58;97892.07;105197;1259;71856;-69
2024/01/15 10:08:50;;;;;;;5.40;1.90;;;;;;;2.45;76.50;97889.62;104699;1258;138412;-62
2024/01/15 10:11:16;;;;;;;5.40;2.10;;;;;;;2.43;76.43;97891.50;104752;1260;61234;-63
2024/01/15 10:13:44;;;;;;;4.20;1.60;;;;;;;2.41;76.65;97898.91;104981;1257;75268;-62
2024/01/15 10:16:11;;;;;;;5.40;2.10;;;;;;;2.42;76.71;97898.42;106403;1258;138051;-63
2024/01/15 10:18:39;;;;;;;5.60;1.90;;;;;;;2.44;76.73;97902.23;104785;1257;72630;-61
2024/01/15 10:21:08;;;;;;;2.90;1.60;;;;;;;2.45;76.63;97897.41;104799;1257;138024;-61
2024/01/15 10:23:36;;;;;;;4.10;2.00;;;;;;;2.45;76.53;97890.84;104939;1257;61200;-63
2024/01/15 10:26:03;;;;;;;2.60;1.70;;;;;;;2.43;76.47;97888.56;104758;1258;73923;-62
2024/01/15 10:28:30;;;;;;;7.10;2.10;;;;;;;2.38;76.20;97883.66;104735;1257;137401;-62
2024/01/15 10:30:57;;;;;;;3.50;1.90;;;;;;;2.35;76.20;97879.13;104793;1257;72449;-62
2024/01/15 10:33:27;;;;;;;7.00;2.30;;;;;;;2.33;76.22;97885.34;104854;1255;137462;-62
2024/01/15 10:35:58;;;;;;;5.00;2.10;;;;;;;2.33;76.22;97885.68;105006;1257;61123;-62
2024/01/15 10:38:24;;;;;;;5.50;1.80;;;;;;;2.37;76.32;97885.03;104713;1261;137617;-63
2024/01/15 10:40:52;;;;;;;5.70;1.90;;;;;;;2.44;76.44;97888.39;108984;1257;66852;-63
2024/01/15 10:43:18;;;;;;;4.60;1.70;;;;;;;2.51;76.26;97890.89;108956;1256;73966;-70
2024/01/15 10:45:46;;;;;;;5.50;1.50;;;;;;;2.55;76.05;97894.23;108851;1257;139356;-69
2024/01/15 10:48:13;;;;;;;4.50;1.70;;;;;;;2.61;75.97;97891.17;108984;1257;59120;-69
2024/01/15 10:50:39;;;;;;;5.50;1.60;;;;;;;2.69;75.89;97890.91;108876;1257;138639;-70
2024/01/15 10:53:06;;;;;;;4.40;1.60;;;;;;;2.83;76.09;97885.16;108987;1256;67031;-69
2024/01/15 10:55:33;;;;;;;22.90;10.20;;;;;;;2.93;76.05;97883.19;108863;1257;73734;-69
2024/01/15 10:58:00;;;;;;;31.70;13.70;;;;;;;3.02;75.74;97887.77;107879;1256;137481;-69
2024/01/15 11:00:26;;;;;;;41.50;17.00;;;;;;;3.11;75.83;97881.44;104620;1259;61139;-69
2024/01/15 11:02:56;;;;;;;57.70;25.30;;;;;;;3.23;75.51;97882.23;104618;1256;137791;-60
2024/01/15 11:05:23;;;;;;;37.90;22.80;;;;;;;3.32;75.32;97877.96;104794;1263;67348;-61
2024/01/15 11:07:50;;;;;;;56.70;25.30;;;;;;;3.38;75.09;97880.95;104880;1258;72907;-61
2024/01/15 11:10:42;;;;;;;57.70;26.30;;;;;;;3.38;74.85;97878.87;104524;1259;137772;-63
2024/01/15 11:13:20;;;;;;;35.90;15.30;;;;;;;3.44;74.93;97876.14;104786;1259;61255;-62
2024/01/15 11:16:04;;;;;;;32.10;16.30;;;;;;;3.51;74.86;97877.06;104948;1256;138635;-63
2024/01/15 11:18:32;;;;;;;;;;;;;;;3.58;74.70;97875.36;108977;1257;66024;-62
2024/01/15 11:21:23;;;;;;;35.70;17.10;;;;;;;3.67;74.51;97873.19;106826;1257;124896;-61
2024/01/15 11:23:50;;;;;;;18.30;9.50;;;;;;;3.63;73.95;97870.21;104779;1260;61276;-63